Dresden, New York
Current Conditions -  °F | °C
As of 3:53 PM on Thursday 20 Nov 2014 (Local Time) from KPEO Reporting Station
Overcast Overcast  
Wind Chill: 18°   Ceiling: 5000
Heat Index: 26°   Visibility: 10mi
Dew Point: 19°   Wind: 7mph
Humidity: 75%   Direction: 340°NNW
Pressure: 29.84"   Gusts: NA
Location:  42.68°N, 76.96°W
Report Text: KPEO 202053Z AUTO 34006KT 10SM OVC050 M03/M07 A2984 RMK AO2 SLP117 T10331072 53009
Loading
Personal Weather Stations






























Interactive Weather Map New forecast layout! Learn more

10-Day Weather Forecast

Advertisements
Track Severe Weather on mobile